createdAt,value
2023-01-30T00:01:15.089Z,5.87
2023-01-30T00:03:42.475Z,3.13
2023-01-30T00:06:11.372Z,3.57
2023-01-30T00:08:38.935Z,3.80
2023-01-30T00:11:09.188Z,4.07
2023-01-30T00:13:37.271Z,3.50
2023-01-30T00:16:04.922Z,3.40
2023-01-30T00:18:32.424Z,2.73
2023-01-30T00:21:02.637Z,3.03
2023-01-30T00:23:32.168Z,3.10
2023-01-30T00:25:59.955Z,3.37
2023-01-30T00:28:27.399Z,2.50
2023-01-30T00:30:56.310Z,3.00
2023-01-30T00:33:27.017Z,3.23
2023-01-30T00:35:57.045Z,4.23
2023-01-30T00:38:25.229Z,2.87
2023-01-30T00:40:52.790Z,2.93
2023-01-30T00:43:21.936Z,3.07
2023-01-30T00:45:52.481Z,2.63
2023-01-30T00:48:20.026Z,2.60
2023-01-30T00:50:47.257Z,2.40
2023-01-30T00:53:16.313Z,2.40
2023-01-30T00:55:43.885Z,2.80
2023-01-30T00:58:11.899Z,2.63
2023-01-30T01:00:39.776Z,2.77
2023-01-30T01:03:07.633Z,3.57
2023-01-30T01:05:35.485Z,2.90
2023-01-30T01:08:02.998Z,3.17
2023-01-30T01:10:30.733Z,3.03
2023-01-30T01:12:58.175Z,3.23
2023-01-30T01:15:27.108Z,3.80
2023-01-30T01:17:55.309Z,4.13
2023-01-30T01:20:23.652Z,3.40
2023-01-30T01:22:57.906Z,4.10
2023-01-30T01:25:25.893Z,4.90
2023-01-30T01:27:55.023Z,2.80
2023-01-30T01:30:22.725Z,2.80
2023-01-30T01:32:50.011Z,5.50
2023-01-30T01:35:17.983Z,2.47
2023-01-30T01:37:46.124Z,3.90
2023-01-30T01:40:20.670Z,2.40
2023-01-30T01:42:47.883Z,2.27
2023-01-30T01:45:23.374Z,2.30
2023-01-30T01:48:05.282Z,2.40
2023-01-30T01:50:49.613Z,2.30
2023-01-30T01:53:21.899Z,2.33
2023-01-30T01:55:53.179Z,2.23
2023-01-30T01:58:29.560Z,2.57
2023-01-30T02:01:00.126Z,2.77
2023-01-30T02:03:32.596Z,6.27
2023-01-30T02:06:03.704Z,5.60
2023-01-30T02:08:43.814Z,2.80
2023-01-30T02:11:40.019Z,2.57
2023-01-30T02:14:08.469Z,2.70
2023-01-30T02:16:37.597Z,2.37
2023-01-30T02:19:32.763Z,2.70
2023-01-30T02:22:45.749Z,2.70
2023-01-30T02:26:06.470Z,2.80
2023-01-30T02:29:04.977Z,2.57
2023-01-30T02:31:59.028Z,2.63
2023-01-30T02:34:54.693Z,2.80
2023-01-30T02:37:44.961Z,2.90
2023-01-30T02:40:18.659Z,3.20
2023-01-30T02:43:22.848Z,3.73
2023-01-30T02:46:30.246Z,2.83
2023-01-30T02:49:08.118Z,3.43
2023-01-30T02:51:39.104Z,2.60
2023-01-30T02:54:11.236Z,4.87
2023-01-30T02:56:49.500Z,2.53
2023-01-30T02:59:42.167Z,2.40
2023-01-30T03:02:54.296Z,2.77
2023-01-30T03:05:42.736Z,2.40
2023-01-30T03:08:32.247Z,2.70
2023-01-30T03:11:06.337Z,3.87
2023-01-30T03:14:00.990Z,2.80
2023-01-30T03:16:41.122Z,2.70
2023-01-30T03:19:13.599Z,2.60
2023-01-30T03:21:43.940Z,3.10
2023-01-30T03:24:12.856Z,3.27
2023-01-30T03:26:48.897Z,2.83
2023-01-30T03:29:16.351Z,3.30
2023-01-30T03:31:43.765Z,3.10
2023-01-30T03:34:11.119Z,3.93
2023-01-30T03:36:38.634Z,2.80
2023-01-30T03:39:06.001Z,3.37
2023-01-30T03:41:33.293Z,2.90
2023-01-30T03:44:00.460Z,3.37
2023-01-30T03:46:27.673Z,2.80
2023-01-30T03:48:54.825Z,4.03
2023-01-30T03:51:22.091Z,2.87
2023-01-30T03:53:49.345Z,4.30
2023-01-30T03:56:16.633Z,3.53
2023-01-30T03:58:43.797Z,3.17
2023-01-30T04:01:11.364Z,2.87
2023-01-30T04:03:38.538Z,3.60
2023-01-30T04:06:05.866Z,3.17
2023-01-30T04:08:33.179Z,3.00
2023-01-30T04:11:00.613Z,2.60
2023-01-30T04:13:27.846Z,2.60
2023-01-30T04:16:19.990Z,2.70
2023-01-30T04:18:47.289Z,2.80
2023-01-30T04:21:15.510Z,3.10
2023-01-30T04:23:43.314Z,4.17
2023-01-30T04:26:11.752Z,3.40
2023-01-30T04:28:38.945Z,3.83
2023-01-30T04:31:06.691Z,3.77
2023-01-30T04:33:33.994Z,6.40
2023-01-30T04:36:04.473Z,7.33
2023-01-30T04:38:34.006Z,4.30
2023-01-30T04:41:01.784Z,4.60
2023-01-30T04:43:30.534Z,4.17
2023-01-30T04:45:58.562Z,12.87
2023-01-30T04:48:26.674Z,4.20
2023-01-30T04:50:56.171Z,9.53
2023-01-30T04:53:25.170Z,9.60
2023-01-30T04:55:52.523Z,6.37
2023-01-30T04:58:19.778Z,9.37
2023-01-30T05:00:48.282Z,12.83
2023-01-30T05:03:17.747Z,9.83
2023-01-30T05:05:48.198Z,9.77
2023-01-30T05:08:16.452Z,12.57
2023-01-30T05:10:44.029Z,8.73
2023-01-30T05:13:13.978Z,10.37
2023-01-30T05:15:41.447Z,11.33
2023-01-30T05:18:08.627Z,6.57
2023-01-30T05:20:35.826Z,9.03
2023-01-30T05:23:03.314Z,8.03
2023-01-30T05:25:30.599Z,8.63
2023-01-30T05:27:58.204Z,11.53
2023-01-30T05:30:25.495Z,16.53
2023-01-30T05:32:52.791Z,9.13
2023-01-30T05:35:20.276Z,20.83
2023-01-30T05:37:52.013Z,13.00
2023-01-30T05:40:19.444Z,21.30
2023-01-30T05:42:46.592Z,16.60
2023-01-30T05:45:13.932Z,8.63
2023-01-30T05:47:41.167Z,9.27
2023-01-30T05:50:09.596Z,9.17
2023-01-30T05:52:36.778Z,6.47
2023-01-30T05:55:04.211Z,6.97
2023-01-30T05:57:31.512Z,9.27
2023-01-30T05:59:58.630Z,8.07
2023-01-30T06:02:25.885Z,8.37
2023-01-30T06:04:53.188Z,10.53
2023-01-30T06:07:20.343Z,6.87
2023-01-30T06:09:47.503Z,7.17
2023-01-30T06:12:14.717Z,18.50
2023-01-30T06:14:41.900Z,15.93
2023-01-30T06:17:09.179Z,10.47
2023-01-30T06:19:36.450Z,9.20
2023-01-30T06:22:03.788Z,9.63
2023-01-30T06:24:30.968Z,12.17
2023-01-30T06:26:59.808Z,8.23
2023-01-30T06:29:27.033Z,59.27
2023-01-30T06:31:54.176Z,58.50
2023-01-30T06:34:21.537Z,35.80
2023-01-30T06:36:48.705Z,37.90
2023-01-30T06:39:15.960Z,33.27
2023-01-30T06:41:43.229Z,34.67
2023-01-30T06:44:10.606Z,27.03
2023-01-30T06:46:37.827Z,12.40
2023-01-30T06:49:05.003Z,28.27
2023-01-30T06:51:32.196Z,26.73
2023-01-30T06:53:59.463Z,25.87
2023-01-30T06:56:26.798Z,14.17
2023-01-30T06:58:54.106Z,14.13
2023-01-30T07:01:21.529Z,17.97
2023-01-30T07:03:50.848Z,16.73
2023-01-30T07:06:18.127Z,17.60
2023-01-30T07:08:45.301Z,14.10
2023-01-30T07:11:12.607Z,12.67
2023-01-30T07:13:39.873Z,16.90
2023-01-30T07:16:07.819Z,16.77
2023-01-30T07:18:35.131Z,27.07
2023-01-30T07:21:02.484Z,37.83
2023-01-30T07:23:29.714Z,47.83
2023-01-30T07:25:57.193Z,33.10
2023-01-30T07:28:24.606Z,31.87
2023-01-30T07:30:51.873Z,24.03
2023-01-30T07:33:19.396Z,23.67
2023-01-30T07:35:46.594Z,24.43
2023-01-30T07:38:13.810Z,27.30
2023-01-30T07:40:41.203Z,27.30
2023-01-30T07:43:12.585Z,24.93
2023-01-30T07:45:47.854Z,23.73
2023-01-30T07:48:19.825Z,24.47
2023-01-30T07:50:47.410Z,25.13
2023-01-30T07:53:17.718Z,25.10
2023-01-30T07:55:45.648Z,30.70
2023-01-30T07:58:16.652Z,40.40
2023-01-30T08:00:44.434Z,43.80
2023-01-30T08:03:15.085Z,22.83
2023-01-30T08:05:42.392Z,32.87
2023-01-30T08:08:09.745Z,34.60
2023-01-30T08:10:37.000Z,28.03
2023-01-30T08:13:04.390Z,27.70
2023-01-30T08:15:31.876Z,23.93
2023-01-30T08:17:59.825Z,27.77
2023-01-30T08:20:28.360Z,22.00
2023-01-30T08:22:56.161Z,25.30
2023-01-30T08:25:24.337Z,21.90
2023-01-30T08:27:52.199Z,21.13
2023-01-30T08:30:21.106Z,19.73
2023-01-30T08:32:48.916Z,20.30
2023-01-30T08:35:16.692Z,24.77
2023-01-30T08:37:44.695Z,24.87
2023-01-30T08:40:12.909Z,29.97
2023-01-30T08:42:58.711Z,36.53
2023-01-30T08:45:25.992Z,25.23
2023-01-30T08:47:53.571Z,21.60
2023-01-30T08:50:20.965Z,18.90
2023-01-30T08:52:48.206Z,19.60
2023-01-30T08:55:15.629Z,23.37
2023-01-30T08:57:42.861Z,18.47
2023-01-30T09:00:11.854Z,18.33
2023-01-30T09:02:39.878Z,20.60
2023-01-30T09:05:08.730Z,22.20
2023-01-30T09:07:35.985Z,19.97
2023-01-30T09:10:04.024Z,17.40
2023-01-30T09:12:31.262Z,13.03
2023-01-30T09:14:58.557Z,13.53
2023-01-30T09:17:26.012Z,17.97
2023-01-30T09:19:54.084Z,14.13
2023-01-30T09:22:21.431Z,16.50
2023-01-30T09:24:48.757Z,13.17
2023-01-30T09:27:16.089Z,19.03
2023-01-30T09:29:45.250Z,15.30
2023-01-30T09:32:12.719Z,20.67
2023-01-30T09:34:39.957Z,19.40
2023-01-30T09:37:07.267Z,18.57
2023-01-30T09:39:34.456Z,19.13
2023-01-30T09:43:01.879Z,16.07
2023-01-30T09:46:04.140Z,15.60
2023-01-30T09:48:53.340Z,14.60
2023-01-30T09:51:29.129Z,13.83
2023-01-30T09:54:21.154Z,17.40
2023-01-30T09:56:59.696Z,13.93
2023-01-30T09:59:39.647Z,14.27
2023-01-30T10:02:09.545Z,13.17
2023-01-30T10:04:59.025Z,12.63
2023-01-30T10:07:51.956Z,14.17
2023-01-30T10:10:25.236Z,13.73
2023-01-30T10:13:29.507Z,13.20
2023-01-30T10:16:25.727Z,9.63
2023-01-30T10:19:01.574Z,11.80
2023-01-30T10:21:56.609Z,7.87
2023-01-30T10:25:08.264Z,12.00
2023-01-30T10:27:36.733Z,10.27
2023-01-30T10:30:10.587Z,10.97
2023-01-30T10:32:55.191Z,9.23
2023-01-30T10:35:29.732Z,5.33
2023-01-30T10:38:53.284Z,3.30
2023-01-30T10:41:33.130Z,3.17
2023-01-30T10:44:05.755Z,4.73
2023-01-30T10:46:57.901Z,4.73
2023-01-30T10:49:37.074Z,4.13
2023-01-30T10:52:38.036Z,3.70
2023-01-30T10:55:37.335Z,4.33
2023-01-30T10:58:42.278Z,4.23
2023-01-30T11:01:41.674Z,1.93
2023-01-30T11:04:29.651Z,2.33
2023-01-30T11:07:00.883Z,2.60
2023-01-30T11:09:45.030Z,10.17
2023-01-30T11:12:13.434Z,5.97
2023-01-30T11:15:00.629Z,51.23
2023-01-30T11:17:40.002Z,4.87
2023-01-30T11:20:21.434Z,3.60
2023-01-30T11:23:04.999Z,4.97
2023-01-30T11:25:47.515Z,3.93
2023-01-30T11:28:15.625Z,3.53
2023-01-30T11:30:43.168Z,3.90
2023-01-30T11:33:18.042Z,3.40
2023-01-30T11:36:00.869Z,3.27
2023-01-30T11:38:36.476Z,2.17
2023-01-30T11:41:09.576Z,2.33
2023-01-30T11:43:40.455Z,2.37
2023-01-30T11:46:18.549Z,2.67
2023-01-30T11:49:07.639Z,1.53
2023-01-30T11:51:47.818Z,2.10
2023-01-30T11:54:39.752Z,2.83
2023-01-30T11:57:14.657Z,1.60
2023-01-30T12:00:00.960Z,1.43
2023-01-30T12:02:35.755Z,2.30
2023-01-30T12:05:17.361Z,2.00
2023-01-30T12:07:45.905Z,1.83
2023-01-30T12:10:28.893Z,2.57
2023-01-30T12:13:03.396Z,3.73
2023-01-30T12:15:37.754Z,2.60
2023-01-30T12:18:26.065Z,1.60
2023-01-30T12:21:05.182Z,1.50
2023-01-30T12:24:05.304Z,1.40
2023-01-30T12:26:55.673Z,2.77
2023-01-30T12:29:57.497Z,3.87
2023-01-30T12:32:31.240Z,1.90
2023-01-30T12:34:58.819Z,1.80
2023-01-30T12:38:14.329Z,0.80
2023-01-30T12:40:55.270Z,3.60
2023-01-30T12:44:00.132Z,1.70
2023-01-30T12:47:03.859Z,1.57
2023-01-30T12:50:00.068Z,3.27
2023-01-30T12:52:47.901Z,4.87
2023-01-30T12:55:55.043Z,3.07
2023-01-30T12:58:55.874Z,3.63
2023-01-30T13:01:58.197Z,5.97
2023-01-30T13:05:16.118Z,3.10
2023-01-30T13:08:26.235Z,1.60
2023-01-30T13:11:11.293Z,3.43
2023-01-30T13:13:54.833Z,4.53
2023-01-30T13:16:45.837Z,2.30
2023-01-30T13:19:50.787Z,2.53
2023-01-30T13:22:30.974Z,2.50
2023-01-30T13:25:16.393Z,3.27
2023-01-30T13:27:58.784Z,3.80
2023-01-30T13:30:29.543Z,6.57
2023-01-30T13:33:16.495Z,13.80
2023-01-30T13:36:03.940Z,3.87
2023-01-30T13:38:36.386Z,6.00
2023-01-30T13:41:05.574Z,9.20
2023-01-30T13:43:52.242Z,9.13
2023-01-30T13:46:30.587Z,14.40
2023-01-30T13:49:22.520Z,10.90
2023-01-30T13:52:17.377Z,11.50
2023-01-30T13:55:19.278Z,10.00
2023-01-30T13:58:23.921Z,7.10
2023-01-30T14:00:56.220Z,7.23
2023-01-30T14:03:33.630Z,8.47
2023-01-30T14:06:13.525Z,6.37
2023-01-30T14:08:54.348Z,7.67
2023-01-30T14:11:56.679Z,10.93
2023-01-30T14:14:34.491Z,9.43
2023-01-30T14:17:15.829Z,8.47
2023-01-30T14:20:17.402Z,21.07
2023-01-30T14:22:47.360Z,13.90
2023-01-30T14:25:23.460Z,8.17
2023-01-30T14:27:52.962Z,9.63
2023-01-30T14:31:03.433Z,7.40
2023-01-30T14:33:49.105Z,16.07
2023-01-30T14:36:16.347Z,28.63
2023-01-30T14:38:44.012Z,26.33
2023-01-30T14:41:28.013Z,19.60
2023-01-30T14:43:55.244Z,13.17
2023-01-30T14:46:22.439Z,12.40
2023-01-30T14:48:49.717Z,16.17
2023-01-30T14:51:39.572Z,11.83
2023-01-30T14:54:13.237Z,9.93
2023-01-30T14:56:52.705Z,10.10
2023-01-30T15:00:13.030Z,7.73
2023-01-30T15:02:55.142Z,13.63
2023-01-30T15:05:44.544Z,5.97
2023-01-30T15:08:43.528Z,5.63
2023-01-30T15:11:32.523Z,5.53
2023-01-30T15:14:39.405Z,5.83
2023-01-30T15:18:07.203Z,5.80
2023-01-30T15:21:04.273Z,4.47
2023-01-30T15:24:21.869Z,6.57
2023-01-30T15:27:14.154Z,6.33
2023-01-30T15:30:08.987Z,6.40
2023-01-30T15:32:36.245Z,8.13
2023-01-30T15:35:24.286Z,12.73
2023-01-30T15:37:55.774Z,8.47
2023-01-30T15:40:26.434Z,13.40
2023-01-30T15:43:51.514Z,12.47
2023-01-30T15:47:16.310Z,13.30
2023-01-30T15:49:54.944Z,10.00
2023-01-30T15:52:36.990Z,6.00
2023-01-30T15:55:04.837Z,5.87
2023-01-30T15:57:40.128Z,4.17
2023-01-30T16:00:19.868Z,3.30
2023-01-30T16:02:47.550Z,3.03
2023-01-30T16:05:25.637Z,6.23
2023-01-30T16:07:56.523Z,10.47
2023-01-30T16:10:30.530Z,4.53
2023-01-30T16:13:02.517Z,2.00
2023-01-30T16:15:42.098Z,1.97
2023-01-30T16:18:21.404Z,2.40
2023-01-30T16:21:06.540Z,2.33
2023-01-30T16:23:54.284Z,2.50
2023-01-30T16:26:22.937Z,1.87
2023-01-30T16:28:59.743Z,1.60
2023-01-30T16:31:33.870Z,1.80
2023-01-30T16:34:01.843Z,2.27
2023-01-30T16:36:31.211Z,2.00
2023-01-30T16:38:59.223Z,1.90
2023-01-30T16:41:40.331Z,2.00
2023-01-30T16:44:28.236Z,1.70
2023-01-30T16:47:23.966Z,4.43
2023-01-30T16:49:53.102Z,2.27
2023-01-30T16:52:34.905Z,1.97
2023-01-30T16:55:07.049Z,2.40
2023-01-30T16:58:04.179Z,1.90
2023-01-30T17:00:37.328Z,2.30
2023-01-30T17:03:20.091Z,2.13
2023-01-30T17:05:49.456Z,2.00
2023-01-30T17:08:50.474Z,2.13
2023-01-30T17:11:38.268Z,2.27
2023-01-30T17:14:14.575Z,2.10
2023-01-30T17:16:42.643Z,2.80
2023-01-30T17:19:10.145Z,1.60
2023-01-30T17:21:51.394Z,2.27
2023-01-30T17:24:24.800Z,2.33
2023-01-30T17:27:00.028Z,3.93
2023-01-30T17:29:41.990Z,4.73
2023-01-30T17:32:15.447Z,5.50
2023-01-30T17:34:43.079Z,2.50
2023-01-30T17:37:21.571Z,2.50
2023-01-30T17:39:49.504Z,2.53
2023-01-30T17:42:17.548Z,3.80
2023-01-30T17:44:49.098Z,4.57
2023-01-30T17:47:17.806Z,3.57
2023-01-30T17:49:45.066Z,3.77
2023-01-30T17:52:14.082Z,5.33
2023-01-30T17:54:41.398Z,4.63
2023-01-30T17:57:14.038Z,2.40
2023-01-30T17:59:41.724Z,2.47
2023-01-30T18:02:13.493Z,2.90
2023-01-30T18:04:40.730Z,2.47
2023-01-30T18:07:14.636Z,1.67
2023-01-30T18:09:41.969Z,2.10
2023-01-30T18:12:09.237Z,1.63
2023-01-30T18:14:36.739Z,2.00
2023-01-30T18:17:04.183Z,3.40
2023-01-30T18:19:31.574Z,2.63
2023-01-30T18:21:58.937Z,2.20
2023-01-30T18:24:26.347Z,2.00
2023-01-30T18:26:53.521Z,3.07
2023-01-30T18:29:20.808Z,2.23
2023-01-30T18:31:48.196Z,2.57
2023-01-30T18:34:15.435Z,3.47
2023-01-30T18:36:42.729Z,2.40
2023-01-30T18:39:11.762Z,1.73
2023-01-30T18:41:39.345Z,3.20
2023-01-30T18:44:07.368Z,3.00
2023-01-30T18:46:34.906Z,3.27
2023-01-30T18:49:02.468Z,3.17
2023-01-30T18:51:34.148Z,2.13
2023-01-30T18:54:02.620Z,3.13
2023-01-30T18:56:33.307Z,1.50
2023-01-30T18:59:03.650Z,1.70
2023-01-30T19:01:35.444Z,1.57
2023-01-30T19:04:06.010Z,1.40
2023-01-30T19:06:38.139Z,1.13
2023-01-30T19:09:07.255Z,1.40
2023-01-30T19:11:35.034Z,1.90
2023-01-30T19:14:02.947Z,1.23
2023-01-30T19:16:33.615Z,1.53
2023-01-30T19:19:01.797Z,1.20
2023-01-30T19:21:29.446Z,2.43
2023-01-30T19:23:56.834Z,1.07
2023-01-30T19:26:25.956Z,2.47
2023-01-30T19:28:53.273Z,1.10
2023-01-30T19:31:22.435Z,1.00
2023-01-30T19:33:59.472Z,1.10
2023-01-30T19:36:31.926Z,1.30
2023-01-30T19:39:00.163Z,0.97
2023-01-30T19:41:33.235Z,0.80
2023-01-30T19:44:03.356Z,1.03
2023-01-30T19:46:31.475Z,1.20
2023-01-30T19:48:59.308Z,1.00
2023-01-30T19:51:31.346Z,1.10
2023-01-30T19:54:08.039Z,1.10
2023-01-30T19:56:36.047Z,0.90
2023-01-30T19:59:04.069Z,1.87
2023-01-30T20:01:33.955Z,0.90
2023-01-30T20:04:02.647Z,1.10
2023-01-30T20:06:33.446Z,1.20
2023-01-30T20:09:09.509Z,1.00
2023-01-30T20:11:40.033Z,1.27
2023-01-30T20:14:09.261Z,1.10
2023-01-30T20:16:36.967Z,1.20
2023-01-30T20:19:16.621Z,1.10
2023-01-30T20:21:44.989Z,0.90
2023-01-30T20:24:14.735Z,1.10
2023-01-30T20:26:46.383Z,2.20
2023-01-30T20:29:15.201Z,1.00
2023-01-30T20:31:42.367Z,1.10
2023-01-30T20:34:13.917Z,1.13
2023-01-30T20:36:41.729Z,1.20
2023-01-30T20:39:09.348Z,1.10
2023-01-30T20:41:37.759Z,1.17
2023-01-30T20:44:08.298Z,1.40
2023-01-30T20:46:38.917Z,1.10
2023-01-30T20:49:06.128Z,1.57
2023-01-30T20:51:34.425Z,3.77
2023-01-30T20:54:05.777Z,1.20
2023-01-30T20:56:37.522Z,1.63
2023-01-30T20:59:07.794Z,1.00
2023-01-30T21:01:35.838Z,2.20
2023-01-30T21:04:09.810Z,1.43
2023-01-30T21:06:44.591Z,1.23
2023-01-30T21:09:20.681Z,1.20
2023-01-30T21:11:49.967Z,1.30
2023-01-30T21:14:18.168Z,1.10
2023-01-30T21:16:45.901Z,1.10
2023-01-30T21:19:17.113Z,0.80
2023-01-30T21:21:55.262Z,1.00
2023-01-30T21:24:27.892Z,1.07
2023-01-30T21:26:56.878Z,1.00
2023-01-30T21:29:27.950Z,1.10
2023-01-30T21:31:57.157Z,3.23
2023-01-30T21:34:24.867Z,3.50
2023-01-30T21:36:52.157Z,1.20
2023-01-30T21:39:19.703Z,1.23
2023-01-30T21:41:47.001Z,1.30
2023-01-30T21:44:14.874Z,5.10
2023-01-30T21:46:46.565Z,1.10
2023-01-30T21:49:18.264Z,1.27
2023-01-30T21:51:48.645Z,1.40
2023-01-30T21:54:17.885Z,1.40
2023-01-30T21:56:45.926Z,1.60
2023-01-30T21:59:13.901Z,1.50
2023-01-30T22:01:41.886Z,1.17
2023-01-30T22:04:13.343Z,1.37
2023-01-30T22:06:41.886Z,1.17
2023-01-30T22:09:13.381Z,1.17
2023-01-30T22:11:40.675Z,1.10
2023-01-30T22:14:07.875Z,3.50
2023-01-30T22:16:35.293Z,1.40
2023-01-30T22:19:04.808Z,1.40
2023-01-30T22:21:37.721Z,1.70
2023-01-30T22:24:07.196Z,1.80
2023-01-30T22:26:35.444Z,2.63
2023-01-30T22:29:05.578Z,2.10
2023-01-30T22:31:37.427Z,1.73
2023-01-30T22:34:05.614Z,1.73
2023-01-30T22:36:34.801Z,1.40
2023-01-30T22:39:02.686Z,1.20
2023-01-30T22:41:34.932Z,1.40
2023-01-30T22:44:05.405Z,1.20
2023-01-30T22:46:36.702Z,1.20
2023-01-30T22:49:07.408Z,1.00
2023-01-30T22:51:40.851Z,1.53
2023-01-30T22:54:13.401Z,1.20
2023-01-30T22:56:43.771Z,1.43
2023-01-30T22:59:11.735Z,1.00
2023-01-30T23:01:46.005Z,1.10
2023-01-30T23:04:19.660Z,1.20
2023-01-30T23:06:48.631Z,1.10
2023-01-30T23:09:20.264Z,1.20
2023-01-30T23:11:54.560Z,1.40
2023-01-30T23:14:21.717Z,1.20
2023-01-30T23:16:48.906Z,1.87
2023-01-30T23:19:16.444Z,1.17
2023-01-30T23:21:45.912Z,1.23
2023-01-30T23:24:21.032Z,1.10
2023-01-30T23:26:51.352Z,1.30
2023-01-30T23:29:20.516Z,0.90
2023-01-30T23:31:48.235Z,1.10
2023-01-30T23:34:19.301Z,1.50
2023-01-30T23:36:47.227Z,1.27
2023-01-30T23:39:14.814Z,1.03
2023-01-30T23:41:43.129Z,1.20
2023-01-30T23:44:11.371Z,0.90
2023-01-30T23:46:41.940Z,1.10
2023-01-30T23:49:13.823Z,1.30
2023-01-30T23:51:44.305Z,1.30
2023-01-30T23:54:14.077Z,1.20
2023-01-30T23:56:44.863Z,1.40
2023-01-30T23:59:12.871Z,1.10
